sensor_id;sensor_type;location;lat;lon;timestamp;pressure;altitude;pressure_sealevel;temperature;humidity
28797;BME280;24974;54.444;18.560;2023-02-28T00:01:36;102933.13;;;2.80;55.54
28797;BME280;24974;54.444;18.560;2023-02-28T00:04:07;102938.13;;;2.36;56.35
28797;BME280;24974;54.444;18.560;2023-02-28T00:06:39;102925.31;;;2.58;55.36
28797;BME280;24974;54.444;18.560;2023-02-28T00:09:11;102930.75;;;2.58;56.14
28797;BME280;24974;54.444;18.560;2023-02-28T00:11:41;102928.84;;;2.51;55.63
28797;BME280;24974;54.444;18.560;2023-02-28T00:14:12;102938.97;;;2.77;55.23
28797;BME280;24974;54.444;18.560;2023-02-28T05:58:35;102907.81;;;2.67;51.42
28797;BME280;24974;54.444;18.560;2023-02-28T06:04:04;102920.09;;;2.21;53.10
28797;BME280;24974;54.444;18.560;2023-02-28T06:06:36;102921.94;;;2.49;52.15
28797;BME280;24974;54.444;18.560;2023-02-28T06:09:07;102916.69;;;2.47;52.97
28797;BME280;24974;54.444;18.560;2023-02-28T06:11:38;102920.31;;;2.61;51.79
28797;BME280;24974;54.444;18.560;2023-02-28T06:14:19;102919.84;;;3.12;50.54
28797;BME280;24974;54.444;18.560;2023-02-28T06:16:50;102925.16;;;2.66;51.22
28797;BME280;24974;54.444;18.560;2023-02-28T06:19:21;102930.88;;;2.43;51.71
28797;BME280;24974;54.444;18.560;2023-02-28T06:21:54;102922.19;;;2.61;51.64
28797;BME280;24974;54.444;18.560;2023-02-28T06:24:26;102921.94;;;2.49;51.49
28797;BME280;24974;54.444;18.560;2023-02-28T06:27:00;102930.38;;;2.67;51.40
28797;BME280;24974;54.444;18.560;2023-02-28T06:29:35;102928.84;;;3.13;50.52
28797;BME280;24974;54.444;18.560;2023-02-28T06:32:06;102929.69;;;3.06;50.74
28797;BME280;24974;54.444;18.560;2023-02-28T06:34:37;102929.03;;;3.04;51.54
28797;BME280;24974;54.444;18.560;2023-02-28T06:37:07;102931.41;;;2.66;51.28
28797;BME280;24974;54.444;18.560;2023-02-28T06:39:38;102933.25;;;3.20;50.45
28797;BME280;24974;54.444;18.560;2023-02-28T06:42:10;102937.97;;;2.44;51.95
28797;BME280;24974;54.444;18.560;2023-02-28T06:44:41;102924.88;;;3.08;51.26
28797;BME280;24974;54.444;18.560;2023-02-28T06:47:13;102926.56;;;3.16;50.99
28797;BME280;24974;54.444;18.560;2023-02-28T06:49:44;102928.13;;;2.84;51.63
28797;BME280;24974;54.444;18.560;2023-02-28T06:52:15;102928.88;;;2.58;52.01
28797;BME280;24974;54.444;18.560;2023-02-28T06:54:46;102930.47;;;2.94;51.97
28797;BME280;24974;54.444;18.560;2023-02-28T06:57:17;102922.44;;;3.47;50.91
28797;BME280;24974;54.444;18.560;2023-02-28T06:59:49;102919.91;;;3.25;51.44
28797;BME280;24974;54.444;18.560;2023-02-28T07:02:20;102921.63;;;3.73;50.80
28797;BME280;24974;54.444;18.560;2023-02-28T07:04:50;102926.13;;;4.45;48.92
28797;BME280;24974;54.444;18.560;2023-02-28T07:07:21;102919.31;;;3.63;51.65
28797;BME280;24974;54.444;18.560;2023-02-28T07:09:52;102916.38;;;4.17;50.29
28797;BME280;24974;54.444;18.560;2023-02-28T07:12:23;102919.41;;;4.47;49.70
28797;BME280;24974;54.444;18.560;2023-02-28T07:14:54;102913.59;;;4.89;48.90
28797;BME280;24974;54.444;18.560;2023-02-28T07:17:26;102917.22;;;4.11;50.73
28797;BME280;24974;54.444;18.560;2023-02-28T07:19:57;102915.50;;;4.17;50.46
28797;BME280;24974;54.444;18.560;2023-02-28T07:22:28;102911.69;;;4.44;50.24
28797;BME280;24974;54.444;18.560;2023-02-28T07:24:59;102912.34;;;4.91;49.15
28797;BME280;24974;54.444;18.560;2023-02-28T07:27:30;102921.06;;;4.48;50.01
28797;BME280;24974;54.444;18.560;2023-02-28T07:30:01;102917.28;;;4.56;49.98
28797;BME280;24974;54.444;18.560;2023-02-28T07:32:35;102915.53;;;4.10;51.13
28797;BME280;24974;54.444;18.560;2023-02-28T07:35:08;102908.78;;;4.91;49.68
28797;BME280;24974;54.444;18.560;2023-02-28T07:37:39;102907.41;;;4.68;49.83
28797;BME280;24974;54.444;18.560;2023-02-28T07:40:11;102910.34;;;4.73;49.89
28797;BME280;24974;54.444;18.560;2023-02-28T07:42:43;102916.06;;;5.35;48.12
28797;BME280;24974;54.444;18.560;2023-02-28T07:45:14;102911.84;;;5.39;48.10
28797;BME280;24974;54.444;18.560;2023-02-28T07:47:45;102915.81;;;5.05;47.65
28797;BME280;24974;54.444;18.560;2023-02-28T07:50:16;102919.19;;;4.49;48.91
28797;BME280;24974;54.444;18.560;2023-02-28T07:52:46;102911.16;;;4.74;49.32
28797;BME280;24974;54.444;18.560;2023-02-28T07:55:17;102915.97;;;4.72;49.11
28797;BME280;24974;54.444;18.560;2023-02-28T07:57:48;102908.22;;;6.02;45.86
28797;BME280;24974;54.444;18.560;2023-02-28T08:00:19;102905.25;;;6.03;45.33
28797;BME280;24974;54.444;18.560;2023-02-28T08:02:50;102911.63;;;5.41;47.04
28797;BME280;24974;54.444;18.560;2023-02-28T08:05:21;102917.38;;;5.57;47.57
28797;BME280;24974;54.444;18.560;2023-02-28T08:07:52;102909.25;;;6.01;45.47
28797;BME280;24974;54.444;18.560;2023-02-28T08:10:23;102910.91;;;5.77;46.26
28797;BME280;24974;54.444;18.560;2023-02-28T08:12:54;102914.63;;;5.57;45.68
28797;BME280;24974;54.444;18.560;2023-02-28T08:15:25;102908.75;;;5.29;45.80
28797;BME280;24974;54.444;18.560;2023-02-28T08:17:56;102910.44;;;5.86;44.78
28797;BME280;24974;54.444;18.560;2023-02-28T08:20:27;102917.81;;;4.85;46.18
28797;BME280;24974;54.444;18.560;2023-02-28T08:22:58;102915.81;;;5.37;45.26
28797;BME280;24974;54.444;18.560;2023-02-28T08:25:28;102906.16;;;6.15;43.79
28797;BME280;24974;54.444;18.560;2023-02-28T08:27:59;102901.56;;;5.91;45.01
28797;BME280;24974;54.444;18.560;2023-02-28T08:30:30;102900.47;;;6.72;42.65
28797;BME280;24974;54.444;18.560;2023-02-28T08:33:01;102899.28;;;6.50;43.49
28797;BME280;24974;54.444;18.560;2023-02-28T08:35:32;102902.16;;;6.55;43.46
28797;BME280;24974;54.444;18.560;2023-02-28T08:38:05;102902.44;;;5.85;44.99
28797;BME280;24974;54.444;18.560;2023-02-28T08:40:36;102899.44;;;6.36;44.05
28797;BME280;24974;54.444;18.560;2023-02-28T08:43:07;102887.28;;;6.32;44.40
28797;BME280;24974;54.444;18.560;2023-02-28T08:45:38;102891.25;;;6.55;44.20
28797;BME280;24974;54.444;18.560;2023-02-28T08:48:08;102896.19;;;6.46;44.14
28797;BME280;24974;54.444;18.560;2023-02-28T08:50:39;102893.09;;;7.63;42.35
28797;BME280;24974;54.444;18.560;2023-02-28T08:53:10;102896.78;;;8.15;41.13
28797;BME280;24974;54.444;18.560;2023-02-28T08:55:41;102900.09;;;7.17;42.07
28797;BME280;24974;54.444;18.560;2023-02-28T08:58:12;102908.94;;;7.00;43.06
28797;BME280;24974;54.444;18.560;2023-02-28T09:00:43;102900.53;;;7.44;41.46
28797;BME280;24974;54.444;18.560;2023-02-28T09:03:13;102914.31;;;6.77;42.47
28797;BME280;24974;54.444;18.560;2023-02-28T09:05:58;102911.75;;;6.45;43.43
28797;BME280;24974;54.444;18.560;2023-02-28T09:08:30;102914.75;;;7.22;41.46
28797;BME280;24974;54.444;18.560;2023-02-28T09:11:01;102913.47;;;6.77;42.58
28797;BME280;24974;54.444;18.560;2023-02-28T09:13:33;102914.97;;;6.91;42.57
28797;BME280;24974;54.444;18.560;2023-02-28T09:16:07;102912.69;;;6.88;42.91
28797;BME280;24974;54.444;18.560;2023-02-28T09:18:39;102909.53;;;8.21;40.18
28797;BME280;24974;54.444;18.560;2023-02-28T09:21:14;102911.41;;;7.74;40.75
28797;BME280;24974;54.444;18.560;2023-02-28T09:23:47;102907.47;;;7.93;39.83
28797;BME280;24974;54.444;18.560;2023-02-28T09:26:26;102899.00;;;7.60;40.96
28797;BME280;24974;54.444;18.560;2023-02-28T09:28:57;102901.53;;;7.84;40.60
28797;BME280;24974;54.444;18.560;2023-02-28T09:31:29;102903.25;;;7.32;40.95
28797;BME280;24974;54.444;18.560;2023-02-28T09:34:00;102915.13;;;6.78;42.00
28797;BME280;24974;54.444;18.560;2023-02-28T09:36:31;102911.75;;;7.54;40.64
28797;BME280;24974;54.444;18.560;2023-02-28T09:39:03;102910.78;;;7.60;40.25
28797;BME280;24974;54.444;18.560;2023-02-28T09:41:39;102909.38;;;7.69;40.33
28797;BME280;24974;54.444;18.560;2023-02-28T09:44:47;102901.34;;;7.44;40.04
28797;BME280;24974;54.444;18.560;2023-02-28T09:50:52;102907.38;;;8.23;38.52
28797;BME280;24974;54.444;18.560;2023-02-28T09:53:13;102902.25;;;8.50;38.21
28797;BME280;24974;54.444;18.560;2023-02-28T09:55:55;102906.78;;;7.98;38.73
28797;BME280;24974;54.444;18.560;2023-02-28T09:58:49;102896.31;;;8.06;38.32
28797;BME280;24974;54.444;18.560;2023-02-28T10:01:30;102905.16;;;7.32;39.77
28797;BME280;24974;54.444;18.560;2023-02-28T10:06:52;102900.72;;;7.96;38.35
28797;BME280;24974;54.444;18.560;2023-02-28T10:09:32;102903.94;;;7.81;38.74
28797;BME280;24974;54.444;18.560;2023-02-28T10:12:05;102899.28;;;8.52;37.30
28797;BME280;24974;54.444;18.560;2023-02-28T10:14:39;102898.84;;;8.72;36.88
28797;BME280;24974;54.444;18.560;2023-02-28T10:17:15;102892.59;;;8.24;37.56
28797;BME280;24974;54.444;18.560;2023-02-28T10:20:07;102891.28;;;8.90;37.22
28797;BME280;24974;54.444;18.560;2023-02-28T10:25:38;102891.38;;;8.95;35.47
28797;BME280;24974;54.444;18.560;2023-02-28T10:28:12;102882.41;;;9.96;34.46
28797;BME280;24974;54.444;18.560;2023-02-28T10:30:47;102887.78;;;10.07;33.68
28797;BME280;24974;54.444;18.560;2023-02-28T10:33:19;102885.97;;;11.28;32.41
28797;BME280;24974;54.444;18.560;2023-02-28T10:35:52;102892.22;;;10.69;32.98
28797;BME280;24974;54.444;18.560;2023-02-28T10:38:32;102894.34;;;10.62;32.58
28797;BME280;24974;54.444;18.560;2023-02-28T10:43:41;102905.72;;;9.60;34.10
28797;BME280;24974;54.444;18.560;2023-02-28T10:46:18;102896.47;;;9.82;33.77
28797;BME280;24974;54.444;18.560;2023-02-28T10:49:12;102900.44;;;10.08;33.77
28797;BME280;24974;54.444;18.560;2023-02-28T10:51:44;102898.84;;;10.29;33.47
28797;BME280;24974;54.444;18.560;2023-02-28T10:54:35;102891.28;;;10.20;33.67
28797;BME280;24974;54.444;18.560;2023-02-28T10:57:25;102881.47;;;11.16;32.15
28797;BME280;24974;54.444;18.560;2023-02-28T11:00:35;102876.50;;;10.04;33.36
28797;BME280;24974;54.444;18.560;2023-02-28T11:03:30;102876.03;;;11.86;30.94
28797;BME280;24974;54.444;18.560;2023-02-28T11:06:17;102880.53;;;12.02;30.65
28797;BME280;24974;54.444;18.560;2023-02-28T11:08:51;102875.16;;;12.85;29.66
28797;BME280;24974;54.444;18.560;2023-02-28T11:11:26;102866.41;;;12.30;30.17
28797;BME280;24974;54.444;18.560;2023-02-28T11:14:04;102865.03;;;13.16;29.03
28797;BME280;24974;54.444;18.560;2023-02-28T11:16:37;102864.75;;;13.94;28.41
28797;BME280;24974;54.444;18.560;2023-02-28T11:19:18;102860.31;;;14.08;27.63
28797;BME280;24974;54.444;18.560;2023-02-28T11:22:08;102852.53;;;14.10;27.90
28797;BME280;24974;54.444;18.560;2023-02-28T11:24:44;102841.09;;;16.47;25.20
28797;BME280;24974;54.444;18.560;2023-02-28T11:27:50;102850.19;;;16.95;24.00
28797;BME280;24974;54.444;18.560;2023-02-28T11:30:35;102852.78;;;14.19;27.49
28797;BME280;24974;54.444;18.560;2023-02-28T11:33:29;102840.50;;;15.10;27.07
28797;BME280;24974;54.444;18.560;2023-02-28T11:36:29;102845.69;;;14.72;26.95
28797;BME280;24974;54.444;18.560;2023-02-28T11:39:08;102830.06;;;14.37;27.08
28797;BME280;24974;54.444;18.560;2023-02-28T11:44:54;102829.00;;;15.61;25.54
28797;BME280;24974;54.444;18.560;2023-02-28T11:53:50;102803.06;;;15.47;25.72
28797;BME280;24974;54.444;18.560;2023-02-28T11:57:09;102793.88;;;14.83;27.08
28797;BME280;24974;54.444;18.560;2023-02-28T12:02:48;102792.59;;;16.20;24.93
28797;BME280;24974;54.444;18.560;2023-02-28T12:25:55;102783.25;;;16.11;24.94
28797;BME280;24974;54.444;18.560;2023-02-28T12:28:38;102789.84;;;15.97;24.98
28797;BME280;24974;54.444;18.560;2023-02-28T12:31:18;102783.16;;;14.71;26.99
28797;BME280;24974;54.444;18.560;2023-02-28T12:33:59;102775.28;;;15.23;26.31
28797;BME280;24974;54.444;18.560;2023-02-28T12:36:31;102778.50;;;16.17;25.45
28797;BME280;24974;54.444;18.560;2023-02-28T12:39:12;102779.66;;;15.29;25.78
28797;BME280;24974;54.444;18.560;2023-02-28T12:41:50;102774.50;;;16.66;25.17
28797;BME280;24974;54.444;18.560;2023-02-28T12:44:40;102770.59;;;17.04;23.80
28797;BME280;24974;54.444;18.560;2023-02-28T12:47:16;102774.47;;;15.22;25.87
28797;BME280;24974;54.444;18.560;2023-02-28T12:49:58;102773.91;;;16.07;25.38
28797;BME280;24974;54.444;18.560;2023-02-28T12:55:21;102770.22;;;16.12;25.36
28797;BME280;24974;54.444;18.560;2023-02-28T12:58:05;102768.88;;;15.85;24.75
28797;BME280;24974;54.444;18.560;2023-02-28T13:03:49;102771.09;;;16.50;24.40
28797;BME280;24974;54.444;18.560;2023-02-28T13:06:42;102766.81;;;15.96;23.70
28797;BME280;24974;54.444;18.560;2023-02-28T13:09:18;102757.63;;;15.77;24.73
28797;BME280;24974;54.444;18.560;2023-02-28T13:11:54;102756.09;;;15.65;24.53
28797;BME280;24974;54.444;18.560;2023-02-28T13:14:35;102753.06;;;15.62;24.50
28797;BME280;24974;54.444;18.560;2023-02-28T13:22:19;102759.00;;;15.45;25.17
28797;BME280;24974;54.444;18.560;2023-02-28T13:24:55;102756.28;;;16.78;24.11
28797;BME280;24974;54.444;18.560;2023-02-28T13:27:38;102759.00;;;14.82;25.91
28797;BME280;24974;54.444;18.560;2023-02-28T13:33:34;102742.19;;;17.08;24.11
28797;BME280;24974;54.444;18.560;2023-02-28T13:41:48;102737.06;;;14.91;26.97
28797;BME280;24974;54.444;18.560;2023-02-28T13:44:23;102740.56;;;16.31;25.42
28797;BME280;24974;54.444;18.560;2023-02-28T13:49:29;102725.88;;;16.49;26.18
28797;BME280;24974;54.444;18.560;2023-02-28T14:05:42;102710.41;;;15.29;28.44
28797;BME280;24974;54.444;18.560;2023-02-28T14:08:17;102707.34;;;16.26;27.53
28797;BME280;24974;54.444;18.560;2023-02-28T14:11:04;102707.44;;;15.49;28.38
28797;BME280;24974;54.444;18.560;2023-02-28T14:13:42;102705.34;;;15.89;27.80
28797;BME280;24974;54.444;18.560;2023-02-28T14:16:23;102705.81;;;16.76;27.21
28797;BME280;24974;54.444;18.560;2023-02-28T14:19:03;102693.09;;;17.49;26.26
28797;BME280;24974;54.444;18.560;2023-02-28T14:24:58;102697.44;;;14.95;29.26
28797;BME280;24974;54.444;18.560;2023-02-28T14:27:27;102692.19;;;14.94;28.67
28797;BME280;24974;54.444;18.560;2023-02-28T14:36:14;102697.38;;;15.29;28.20
28797;BME280;24974;54.444;18.560;2023-02-28T14:41:30;102690.72;;;14.28;30.14
28797;BME280;24974;54.444;18.560;2023-02-28T14:44:11;102707.34;;;13.38;31.99
28797;BME280;24974;54.444;18.560;2023-02-28T14:46:44;102703.88;;;13.92;31.17
28797;BME280;24974;54.444;18.560;2023-02-28T14:49:44;102710.69;;;12.69;33.26
28797;BME280;24974;54.444;18.560;2023-02-28T14:52:24;102712.59;;;12.48;33.85
28797;BME280;24974;54.444;18.560;2023-02-28T14:55:00;102707.22;;;12.00;35.63
28797;BME280;24974;54.444;18.560;2023-02-28T14:57:38;102713.00;;;11.52;36.55
28797;BME280;24974;54.444;18.560;2023-02-28T15:02:44;102699.66;;;10.91;38.33
28797;BME280;24974;54.444;18.560;2023-02-28T15:07:49;102686.38;;;10.51;38.96
28797;BME280;24974;54.444;18.560;2023-02-28T15:10:31;102674.84;;;10.54;38.98
28797;BME280;24974;54.444;18.560;2023-02-28T15:13:07;102674.56;;;10.55;39.50
28797;BME280;24974;54.444;18.560;2023-02-28T15:15:57;102673.19;;;10.53;39.87
28797;BME280;24974;54.444;18.560;2023-02-28T15:18:53;102665.72;;;10.48;39.92
28797;BME280;24974;54.444;18.560;2023-02-28T15:24:07;102665.56;;;11.34;38.55
28797;BME280;24974;54.444;18.560;2023-02-28T15:26:46;102680.28;;;10.49;40.33
28797;BME280;24974;54.444;18.560;2023-02-28T15:29:23;102679.31;;;10.11;40.85
28797;BME280;24974;54.444;18.560;2023-02-28T15:32:04;102684.38;;;10.46;40.00
28797;BME280;24974;54.444;18.560;2023-02-28T15:34:38;102683.91;;;10.54;40.50
28797;BME280;24974;54.444;18.560;2023-02-28T15:40:31;102687.88;;;10.36;40.77
28797;BME280;24974;54.444;18.560;2023-02-28T15:43:06;102683.63;;;10.51;40.68
28797;BME280;24974;54.444;18.560;2023-02-28T15:45:46;102673.78;;;10.28;41.01
28797;BME280;24974;54.444;18.560;2023-02-28T15:50:53;102670.06;;;9.51;42.38
28797;BME280;24974;54.444;18.560;2023-02-28T15:53:47;102666.41;;;9.46;42.62
28797;BME280;24974;54.444;18.560;2023-02-28T15:56:29;102669.59;;;9.38;42.69
28797;BME280;24974;54.444;18.560;2023-02-28T15:59:07;102657.44;;;9.50;42.25
28797;BME280;24974;54.444;18.560;2023-02-28T16:01:43;102660.25;;;9.17;42.60
28797;BME280;24974;54.444;18.560;2023-02-28T16:04:19;102662.09;;;8.94;43.24
28797;BME280;24974;54.444;18.560;2023-02-28T16:09:30;102661.28;;;9.71;41.51
28797;BME280;24974;54.444;18.560;2023-02-28T16:12:02;102657.78;;;9.15;42.78
28797;BME280;24974;54.444;18.560;2023-02-28T16:15:07;102652.88;;;9.01;42.99
28797;BME280;24974;54.444;18.560;2023-02-28T16:17:39;102660.56;;;9.20;42.51
28797;BME280;24974;54.444;18.560;2023-02-28T16:20:15;102659.03;;;8.74;43.19
28797;BME280;24974;54.444;18.560;2023-02-28T16:22:46;102663.66;;;9.63;42.02
28797;BME280;24974;54.444;18.560;2023-02-28T16:25:25;102668.97;;;9.14;42.67
28797;BME280;24974;54.444;18.560;2023-02-28T16:27:58;102661.88;;;9.35;42.07
28797;BME280;24974;54.444;18.560;2023-02-28T16:30:30;102668.63;;;9.88;41.52
28797;BME280;24974;54.444;18.560;2023-02-28T16:33:04;102663.13;;;9.66;41.66
28797;BME280;24974;54.444;18.560;2023-02-28T16:35:35;102665.59;;;9.45;41.86
28797;BME280;24974;54.444;18.560;2023-02-28T16:38:06;102667.84;;;8.59;43.21
28797;BME280;24974;54.444;18.560;2023-02-28T16:40:37;102665.75;;;9.17;42.22
28797;BME280;24974;54.444;18.560;2023-02-28T16:43:15;102649.81;;;8.63;43.66
28797;BME280;24974;54.444;18.560;2023-02-28T16:45:47;102650.47;;;8.54;43.70
28797;BME280;24974;54.444;18.560;2023-02-28T16:48:18;102650.31;;;8.94;43.19
28797;BME280;24974;54.444;18.560;2023-02-28T16:50:49;102658.69;;;8.25;43.84
28797;BME280;24974;54.444;18.560;2023-02-28T16:53:20;102655.22;;;8.75;43.24
28797;BME280;24974;54.444;18.560;2023-02-28T16:55:51;102665.06;;;7.74;44.45
28797;BME280;24974;54.444;18.560;2023-02-28T16:58:22;102665.56;;;8.39;43.59
28797;BME280;24974;54.444;18.560;2023-02-28T17:00:55;102660.09;;;9.07;42.16
28797;BME280;24974;54.444;18.560;2023-02-28T17:03:27;102648.97;;;8.63;43.09
28797;BME280;24974;54.444;18.560;2023-02-28T17:05:58;102640.66;;;8.58;42.79
28797;BME280;24974;54.444;18.560;2023-02-28T17:08:30;102649.88;;;8.23;43.05
28797;BME280;24974;54.444;18.560;2023-02-28T17:11:02;102642.97;;;8.49;42.60
28797;BME280;24974;54.444;18.560;2023-02-28T17:13:33;102637.41;;;8.94;41.76
28797;BME280;24974;54.444;18.560;2023-02-28T17:16:05;102637.44;;;8.61;42.27
28797;BME280;24974;54.444;18.560;2023-02-28T17:18:36;102638.16;;;8.73;42.09
28797;BME280;24974;54.444;18.560;2023-02-28T17:21:13;102652.34;;;8.08;43.40
28797;BME280;24974;54.444;18.560;2023-02-28T17:23:45;102648.50;;;8.83;41.62
28797;BME280;24974;54.444;18.560;2023-02-28T17:26:17;102651.34;;;7.85;43.14
28797;BME280;24974;54.444;18.560;2023-02-28T17:28:54;102644.94;;;8.08;42.85
28797;BME280;24974;54.444;18.560;2023-02-28T17:31:26;102637.91;;;7.84;43.10
28797;BME280;24974;54.444;18.560;2023-02-28T17:33:58;102640.88;;;7.94;42.84
28797;BME280;24974;54.444;18.560;2023-02-28T17:36:28;102641.06;;;7.64;43.48
28797;BME280;24974;54.444;18.560;2023-02-28T17:39:00;102642.28;;;7.56;44.33
28797;BME280;24974;54.444;18.560;2023-02-28T17:41:31;102635.91;;;7.79;43.52
28797;BME280;24974;54.444;18.560;2023-02-28T17:44:02;102641.69;;;7.95;43.23
28797;BME280;24974;54.444;18.560;2023-02-28T17:46:33;102650.13;;;7.65;43.81
28797;BME280;24974;54.444;18.560;2023-02-28T17:49:04;102650.06;;;7.24;44.45
28797;BME280;24974;54.444;18.560;2023-02-28T17:51:35;102653.19;;;7.68;43.97
28797;BME280;24974;54.444;18.560;2023-02-28T17:54:05;102647.56;;;7.75;43.44
28797;BME280;24974;54.444;18.560;2023-02-28T17:56:36;102641.38;;;7.04;44.39
28797;BME280;24974;54.444;18.560;2023-02-28T17:59:09;102650.78;;;6.96;45.07
28797;BME280;24974;54.444;18.560;2023-02-28T18:01:40;102638.38;;;7.41;44.91
28797;BME280;24974;54.444;18.560;2023-02-28T18:04:11;102637.06;;;7.43;43.99
28797;BME280;24974;54.444;18.560;2023-02-28T18:06:45;102642.78;;;7.42;44.31
28797;BME280;24974;54.444;18.560;2023-02-28T18:09:21;102648.97;;;7.49;44.09
28797;BME280;24974;54.444;18.560;2023-02-28T18:11:54;102654.22;;;8.19;42.67
28797;BME280;24974;54.444;18.560;2023-02-28T18:14:26;102653.47;;;7.95;42.88
28797;BME280;24974;54.444;18.560;2023-02-28T18:16:57;102663.28;;;7.79;43.75
28797;BME280;24974;54.444;18.560;2023-02-28T18:19:27;102675.69;;;7.70;43.52
28797;BME280;24974;54.444;18.560;2023-02-28T18:21:58;102672.38;;;7.56;44.18
28797;BME280;24974;54.444;18.560;2023-02-28T18:24:30;102666.78;;;7.63;44.15
28797;BME280;24974;54.444;18.560;2023-02-28T18:27:01;102664.91;;;7.28;45.02
28797;BME280;24974;54.444;18.560;2023-02-28T18:29:32;102662.03;;;7.58;44.21
28797;BME280;24974;54.444;18.560;2023-02-28T18:32:03;102665.06;;;7.22;45.02
28797;BME280;24974;54.444;18.560;2023-02-28T18:34:35;102658.25;;;7.13;45.45
28797;BME280;24974;54.444;18.560;2023-02-28T18:37:07;102654.19;;;6.80;46.56
28797;BME280;24974;54.444;18.560;2023-02-28T18:39:38;102658.88;;;6.38;46.68
28797;BME280;24974;54.444;18.560;2023-02-28T18:42:09;102660.75;;;7.03;45.65
28797;BME280;24974;54.444;18.560;2023-02-28T18:44:40;102660.53;;;6.27;47.19
28797;BME280;24974;54.444;18.560;2023-02-28T18:47:11;102657.13;;;6.13;47.81
28797;BME280;24974;54.444;18.560;2023-02-28T18:49:42;102659.13;;;6.48;46.57
28797;BME280;24974;54.444;18.560;2023-02-28T18:52:13;102659.84;;;6.43;46.77
28797;BME280;24974;54.444;18.560;2023-02-28T18:54:43;102662.16;;;6.58;47.35
28797;BME280;24974;54.444;18.560;2023-02-28T18:57:14;102668.81;;;6.21;47.75
28797;BME280;24974;54.444;18.560;2023-02-28T18:59:45;102667.31;;;7.01;45.80
28797;BME280;24974;54.444;18.560;2023-02-28T19:02:16;102663.84;;;6.94;45.88
28797;BME280;24974;54.444;18.560;2023-02-28T19:04:47;102656.16;;;6.50;47.16
28797;BME280;24974;54.444;18.560;2023-02-28T19:07:18;102655.06;;;6.27;47.97
28797;BME280;24974;54.444;18.560;2023-02-28T19:09:48;102648.09;;;6.43;48.16
28797;BME280;24974;54.444;18.560;2023-02-28T19:12:19;102647.09;;;5.96;49.20
28797;BME280;24974;54.444;18.560;2023-02-28T19:14:50;102628.06;;;5.89;49.47
28797;BME280;24974;54.444;18.560;2023-02-28T19:17:21;102625.97;;;5.73;50.65
28797;BME280;24974;54.444;18.560;2023-02-28T19:19:51;102629.19;;;6.00;49.70
28797;BME280;24974;54.444;18.560;2023-02-28T19:22:22;102644.88;;;6.46;48.79
28797;BME280;24974;54.444;18.560;2023-02-28T19:24:54;102645.88;;;5.37;51.58
28797;BME280;24974;54.444;18.560;2023-02-28T19:27:24;102646.72;;;5.19;52.68
28797;BME280;24974;54.444;18.560;2023-02-28T19:29:55;102641.50;;;6.21;50.67
28797;BME280;24974;54.444;18.560;2023-02-28T19:32:28;102650.22;;;5.63;51.37
28797;BME280;24974;54.444;18.560;2023-02-28T19:34:59;102644.97;;;5.79;51.84
28797;BME280;24974;54.444;18.560;2023-02-28T19:37:30;102643.25;;;5.48;52.36
28797;BME280;24974;54.444;18.560;2023-02-28T19:40:00;102645.22;;;5.96;50.98
28797;BME280;24974;54.444;18.560;2023-02-28T19:42:31;102659.78;;;4.92;54.26
28797;BME280;24974;54.444;18.560;2023-02-28T19:45:03;102654.66;;;5.20;53.39
28797;BME280;24974;54.444;18.560;2023-02-28T19:47:34;102654.22;;;5.60;53.00
28797;BME280;24974;54.444;18.560;2023-02-28T19:50:06;102656.91;;;5.48;53.79
28797;BME280;24974;54.444;18.560;2023-02-28T19:52:37;102635.53;;;5.64;53.19
28797;BME280;24974;54.444;18.560;2023-02-28T19:55:08;102652.56;;;5.22;54.38
28797;BME280;24974;54.444;18.560;2023-02-28T19:57:40;102656.19;;;5.34;54.02
28797;BME280;24974;54.444;18.560;2023-02-28T20:00:13;102654.69;;;5.57;54.15
28797;BME280;24974;54.444;18.560;2023-02-28T20:02:45;102652.69;;;5.09;55.30
28797;BME280;24974;54.444;18.560;2023-02-28T20:05:16;102655.44;;;5.27;54.92
28797;BME280;24974;54.444;18.560;2023-02-28T20:07:47;102646.72;;;5.19;54.81
28797;BME280;24974;54.444;18.560;2023-02-28T20:10:18;102655.59;;;5.51;54.02
28797;BME280;24974;54.444;18.560;2023-02-28T20:12:48;102651.28;;;5.80;53.69
28797;BME280;24974;54.444;18.560;2023-02-28T20:15:20;102646.28;;;5.58;53.81
28797;BME280;24974;54.444;18.560;2023-02-28T20:17:50;102642.56;;;5.34;54.11
28797;BME280;24974;54.444;18.560;2023-02-28T20:20:22;102637.47;;;5.01;55.64
28797;BME280;24974;54.444;18.560;2023-02-28T20:22:54;102641.38;;;5.49;54.18
28797;BME280;24974;54.444;18.560;2023-02-28T20:25:25;102648.25;;;5.15;54.99
28797;BME280;24974;54.444;18.560;2023-02-28T20:27:56;102641.28;;;5.37;54.06
28797;BME280;24974;54.444;18.560;2023-02-28T20:30:27;102643.19;;;5.55;54.29
28797;BME280;24974;54.444;18.560;2023-02-28T20:32:57;102642.00;;;5.99;52.84
28797;BME280;24974;54.444;18.560;2023-02-28T20:35:28;102628.84;;;5.78;52.75
28797;BME280;24974;54.444;18.560;2023-02-28T20:37:59;102615.75;;;5.50;54.60
28797;BME280;24974;54.444;18.560;2023-02-28T20:40:30;102617.72;;;5.43;54.61
28797;BME280;24974;54.444;18.560;2023-02-28T20:43:01;102614.72;;;5.14;55.08
28797;BME280;24974;54.444;18.560;2023-02-28T20:45:31;102605.34;;;4.85;55.67
28797;BME280;24974;54.444;18.560;2023-02-28T20:48:04;102614.78;;;5.08;55.08
28797;BME280;24974;54.444;18.560;2023-02-28T20:50:34;102605.69;;;5.50;53.65
28797;BME280;24974;54.444;18.560;2023-02-28T20:53:05;102611.28;;;5.37;54.47
28797;BME280;24974;54.444;18.560;2023-02-28T20:55:36;102610.66;;;5.72;53.46
28797;BME280;24974;54.444;18.560;2023-02-28T20:58:07;102611.91;;;5.39;54.09
28797;BME280;24974;54.444;18.560;2023-02-28T21:00:38;102618.84;;;5.17;55.52